createdAt,value
2022-07-31T00:01:42.787Z,2.26
2022-07-31T00:04:09.143Z,2.30
2022-07-31T00:06:35.507Z,2.22
2022-07-31T00:09:01.871Z,2.45
2022-07-31T00:11:28.229Z,2.28
2022-07-31T00:13:56.782Z,2.06
2022-07-31T00:16:24.939Z,2.15
2022-07-31T00:18:51.339Z,2.55
2022-07-31T00:21:17.696Z,2.40
2022-07-31T00:23:44.057Z,2.10
2022-07-31T00:26:10.410Z,2.17
2022-07-31T00:28:36.773Z,2.10
2022-07-31T00:31:03.122Z,2.31
2022-07-31T00:33:29.477Z,2.24
2022-07-31T00:35:55.838Z,2.22
2022-07-31T00:38:26.939Z,2.30
2022-07-31T00:40:53.749Z,2.39
2022-07-31T00:43:20.183Z,2.37
2022-07-31T00:45:46.537Z,2.32
2022-07-31T00:48:16.902Z,2.42
2022-07-31T00:50:44.492Z,2.32
2022-07-31T00:53:10.853Z,2.30
2022-07-31T00:55:51.480Z,2.67
2022-07-31T00:58:18.560Z,2.50
2022-07-31T01:00:44.959Z,2.36
2022-07-31T01:03:11.391Z,2.21
2022-07-31T01:05:37.756Z,2.31
2022-07-31T01:08:04.138Z,2.19
2022-07-31T01:10:30.533Z,2.43
2022-07-31T01:12:56.997Z,2.55
2022-07-31T01:15:23.365Z,2.47
2022-07-31T01:17:49.725Z,2.25
2022-07-31T01:20:16.090Z,2.14
2022-07-31T01:22:42.514Z,2.36
2022-07-31T01:25:09.023Z,2.16
2022-07-31T01:27:49.163Z,2.33
2022-07-31T01:30:16.329Z,2.49
2022-07-31T01:32:42.680Z,2.41
2022-07-31T01:35:09.038Z,2.29
2022-07-31T01:37:35.430Z,2.37
2022-07-31T01:40:01.810Z,2.49
2022-07-31T01:42:28.202Z,2.43
2022-07-31T01:44:54.558Z,2.43
2022-07-31T01:47:20.978Z,2.39
2022-07-31T01:49:47.337Z,2.13
2022-07-31T01:52:13.719Z,2.37
2022-07-31T01:54:40.072Z,2.51
2022-07-31T01:57:06.438Z,2.50
2022-07-31T01:59:32.922Z,2.36
2022-07-31T02:02:01.397Z,2.36
2022-07-31T02:04:28.320Z,2.41
2022-07-31T02:06:54.658Z,2.31
2022-07-31T02:09:21.019Z,2.45
2022-07-31T02:11:54.646Z,2.38
2022-07-31T02:14:21.448Z,2.39
2022-07-31T02:16:47.804Z,2.56
2022-07-31T02:19:14.162Z,2.37
2022-07-31T02:21:40.771Z,2.77
2022-07-31T02:24:07.143Z,2.49
2022-07-31T02:26:33.525Z,2.53
2022-07-31T02:28:59.903Z,2.49
2022-07-31T02:31:26.259Z,2.35
2022-07-31T02:33:52.609Z,2.44
2022-07-31T02:36:18.966Z,2.37
2022-07-31T02:38:45.327Z,2.32
2022-07-31T02:41:11.691Z,2.56
2022-07-31T02:43:38.056Z,2.44
2022-07-31T02:46:04.414Z,2.52
2022-07-31T02:48:30.770Z,2.61
2022-07-31T02:50:57.163Z,2.34
2022-07-31T02:53:23.516Z,2.55
2022-07-31T02:55:49.875Z,2.49
2022-07-31T02:58:16.237Z,2.49
2022-07-31T03:00:42.660Z,2.43
2022-07-31T03:03:09.039Z,2.55
2022-07-31T03:05:35.403Z,2.25
2022-07-31T03:08:01.758Z,2.46
2022-07-31T03:10:28.121Z,2.30
2022-07-31T03:12:54.504Z,2.53
2022-07-31T03:15:20.860Z,2.33
2022-07-31T03:17:47.205Z,2.48
2022-07-31T03:20:13.554Z,2.44
2022-07-31T03:22:39.929Z,2.42
2022-07-31T03:25:06.291Z,2.39
2022-07-31T03:27:32.651Z,2.35
2022-07-31T03:29:59.000Z,2.34
2022-07-31T03:32:25.355Z,2.49
2022-07-31T03:34:51.715Z,2.20
2022-07-31T03:37:18.070Z,2.38
2022-07-31T03:39:44.429Z,2.41
2022-07-31T03:42:12.916Z,2.17
2022-07-31T03:44:45.681Z,2.31
2022-07-31T03:47:12.032Z,2.24
2022-07-31T03:49:38.447Z,2.54
2022-07-31T03:52:09.997Z,2.50
2022-07-31T03:54:38.191Z,2.41
2022-07-31T03:57:04.557Z,2.35
2022-07-31T03:59:32.439Z,2.03
2022-07-31T04:02:10.435Z,2.35
2022-07-31T04:04:37.711Z,2.27
2022-07-31T04:07:04.086Z,2.53
2022-07-31T04:09:30.446Z,2.26
2022-07-31T04:11:56.825Z,2.20
2022-07-31T04:14:23.175Z,2.05
2022-07-31T04:16:49.528Z,2.18
2022-07-31T04:19:15.881Z,2.10
2022-07-31T04:21:42.255Z,2.38
2022-07-31T04:24:08.611Z,2.20
2022-07-31T04:26:34.963Z,2.33
2022-07-31T04:29:01.319Z,2.42
2022-07-31T04:31:27.677Z,2.36
2022-07-31T04:33:56.825Z,2.30
2022-07-31T04:36:29.395Z,2.30
2022-07-31T04:38:57.068Z,2.38
2022-07-31T04:41:23.422Z,2.31
2022-07-31T04:43:49.774Z,2.29
2022-07-31T04:46:17.042Z,2.28
2022-07-31T04:48:45.004Z,2.28
2022-07-31T04:51:11.530Z,2.22
2022-07-31T04:53:41.369Z,2.20
2022-07-31T04:56:07.717Z,2.12
2022-07-31T04:58:34.058Z,2.40
2022-07-31T05:01:00.438Z,2.19
2022-07-31T05:03:26.786Z,2.26
2022-07-31T05:05:53.149Z,2.06
2022-07-31T05:08:19.503Z,2.12
2022-07-31T05:10:45.858Z,2.21
2022-07-31T05:13:12.203Z,2.27
2022-07-31T05:15:38.558Z,2.09
2022-07-31T05:18:04.913Z,2.21
2022-07-31T05:20:31.334Z,2.28
2022-07-31T05:22:57.686Z,2.17
2022-07-31T05:25:24.054Z,2.25
2022-07-31T05:27:50.397Z,2.17
2022-07-31T05:30:16.757Z,2.08
2022-07-31T05:32:56.125Z,2.38
2022-07-31T05:35:22.483Z,2.26
2022-07-31T05:37:48.839Z,2.35
2022-07-31T05:40:15.211Z,2.23
2022-07-31T05:42:41.562Z,2.30
2022-07-31T05:45:07.922Z,2.10
2022-07-31T05:47:40.825Z,2.16
2022-07-31T05:50:07.422Z,2.09
2022-07-31T05:52:33.778Z,2.10
2022-07-31T05:55:00.139Z,2.17
2022-07-31T05:57:33.520Z,2.01
2022-07-31T06:00:00.732Z,2.14
2022-07-31T06:02:30.269Z,2.32
2022-07-31T06:04:56.627Z,2.14
2022-07-31T06:07:22.983Z,1.87
2022-07-31T06:09:49.355Z,2.01
2022-07-31T06:12:16.764Z,2.24
2022-07-31T06:14:43.126Z,1.97
2022-07-31T06:17:09.481Z,2.22
2022-07-31T06:19:35.839Z,2.25
2022-07-31T06:22:02.291Z,2.09
2022-07-31T06:24:28.850Z,1.97
2022-07-31T06:26:55.203Z,2.21
2022-07-31T06:29:40.796Z,2.05
2022-07-31T06:32:08.085Z,2.03
2022-07-31T06:34:34.443Z,2.09
2022-07-31T06:37:00.801Z,2.13
2022-07-31T06:39:28.632Z,1.96
2022-07-31T06:42:13.490Z,2.20
2022-07-31T06:44:46.156Z,1.98
2022-07-31T06:47:13.944Z,2.05
2022-07-31T06:49:42.685Z,1.95
2022-07-31T06:52:09.118Z,2.08
2022-07-31T06:54:35.491Z,2.04
2022-07-31T06:57:01.859Z,1.95
2022-07-31T06:59:40.562Z,2.21
2022-07-31T07:02:07.506Z,2.05
2022-07-31T07:05:05.140Z,2.18
2022-07-31T07:07:20.559Z,2.16
2022-07-31T07:09:46.916Z,1.94
2022-07-31T07:12:16.704Z,2.09
2022-07-31T07:14:43.448Z,2.17
2022-07-31T07:17:09.800Z,2.16
2022-07-31T07:19:36.158Z,1.97
2022-07-31T07:22:02.727Z,2.03
2022-07-31T07:24:29.358Z,2.01
2022-07-31T07:26:55.719Z,2.07
2022-07-31T07:29:22.080Z,1.96
2022-07-31T07:31:48.470Z,2.07
2022-07-31T07:34:14.829Z,2.05
2022-07-31T07:36:41.198Z,2.41
2022-07-31T07:39:07.566Z,2.13
2022-07-31T07:41:33.921Z,2.20
2022-07-31T07:44:00.270Z,1.87
2022-07-31T07:46:26.636Z,2.38
2022-07-31T07:48:53.091Z,4.55
2022-07-31T07:51:19.510Z,6.63
2022-07-31T07:53:45.868Z,7.88
2022-07-31T07:56:12.223Z,7.68
2022-07-31T07:58:38.582Z,7.30
2022-07-31T08:01:05.029Z,7.23
2022-07-31T08:03:50.311Z,7.31
2022-07-31T08:06:17.745Z,7.30
2022-07-31T08:08:44.097Z,6.73
2022-07-31T08:11:10.457Z,7.09
2022-07-31T08:13:47.873Z,6.80
2022-07-31T08:16:16.338Z,6.49
2022-07-31T08:18:42.685Z,6.71
2022-07-31T08:21:09.045Z,5.47
2022-07-31T08:23:35.435Z,4.02
2022-07-31T08:26:01.803Z,3.34
2022-07-31T08:28:28.307Z,2.93
2022-07-31T08:30:55.382Z,2.85
2022-07-31T08:33:21.739Z,2.91
2022-07-31T08:35:50.569Z,2.75
2022-07-31T08:38:17.343Z,2.74
2022-07-31T08:40:43.984Z,2.70
2022-07-31T08:43:31.158Z,2.62
2022-07-31T08:45:56.692Z,2.86
2022-07-31T08:48:23.086Z,2.91
2022-07-31T08:50:53.683Z,2.90
2022-07-31T08:53:20.305Z,2.87
2022-07-31T08:55:55.163Z,2.83
2022-07-31T08:58:23.882Z,3.20
2022-07-31T09:00:51.218Z,2.89
2022-07-31T09:03:17.642Z,3.34
2022-07-31T09:05:43.995Z,2.99
2022-07-31T09:08:14.824Z,2.97
2022-07-31T09:10:45.068Z,3.24
2022-07-31T09:13:15.570Z,2.74
2022-07-31T09:15:41.937Z,2.98
2022-07-31T09:18:08.322Z,3.05
2022-07-31T09:20:34.682Z,3.37
2022-07-31T09:23:01.036Z,3.04
2022-07-31T09:25:27.399Z,2.81
2022-07-31T09:27:53.749Z,2.86
2022-07-31T09:30:20.101Z,3.20
2022-07-31T09:32:46.513Z,3.01
2022-07-31T09:35:13.930Z,3.12
2022-07-31T09:37:40.324Z,3.50
2022-07-31T09:40:07.983Z,3.33
2022-07-31T09:42:34.479Z,3.07
2022-07-31T09:45:00.839Z,3.18
2022-07-31T09:47:27.211Z,2.87
2022-07-31T09:49:53.580Z,3.16
2022-07-31T09:52:19.955Z,3.02
2022-07-31T09:54:46.313Z,2.87
2022-07-31T09:57:12.682Z,2.84
2022-07-31T09:59:39.050Z,3.06
2022-07-31T10:02:05.407Z,3.00
2022-07-31T10:04:31.754Z,3.30
2022-07-31T10:06:58.105Z,3.13
2022-07-31T10:09:24.453Z,2.94
2022-07-31T10:11:50.824Z,2.84
2022-07-31T10:14:17.177Z,2.76
2022-07-31T10:16:43.539Z,3.10
2022-07-31T10:19:09.889Z,2.93
2022-07-31T10:21:36.296Z,2.72
2022-07-31T10:24:02.637Z,2.91
2022-07-31T10:26:50.730Z,2.89
2022-07-31T10:29:15.387Z,2.94
2022-07-31T10:31:41.739Z,2.77
2022-07-31T10:34:08.095Z,2.67
2022-07-31T10:36:34.467Z,2.86
2022-07-31T10:39:00.831Z,2.96
2022-07-31T10:41:27.183Z,2.92
2022-07-31T10:43:53.534Z,3.13
2022-07-31T10:46:19.895Z,2.81
2022-07-31T10:48:46.279Z,2.68
2022-07-31T10:51:12.652Z,2.62
2022-07-31T10:53:51.289Z,2.48
2022-07-31T10:56:21.649Z,2.81
2022-07-31T10:58:48.015Z,2.44
2022-07-31T11:01:17.415Z,2.55
2022-07-31T11:03:44.203Z,2.54
2022-07-31T11:06:10.583Z,2.73
2022-07-31T11:08:36.986Z,2.36
2022-07-31T11:11:03.643Z,2.77
2022-07-31T11:13:33.757Z,2.59
2022-07-31T11:16:03.632Z,2.46
2022-07-31T11:18:34.455Z,2.59
2022-07-31T11:21:13.299Z,2.63
2022-07-31T11:23:56.063Z,2.58
2022-07-31T11:26:33.435Z,2.59
2022-07-31T11:30:00.560Z,2.69
2022-07-31T11:31:54.523Z,2.40
2022-07-31T11:34:20.885Z,2.57
2022-07-31T11:36:51.307Z,2.62
2022-07-31T11:39:17.936Z,2.68
2022-07-31T11:41:45.592Z,2.71
2022-07-31T11:44:12.151Z,3.02
2022-07-31T11:46:38.499Z,2.64
2022-07-31T11:49:04.926Z,2.57
2022-07-31T11:51:31.308Z,2.62
2022-07-31T11:53:57.961Z,2.76
2022-07-31T11:56:24.405Z,2.60
2022-07-31T11:58:50.761Z,2.81
2022-07-31T12:01:17.123Z,3.19
2022-07-31T12:03:43.469Z,3.06
2022-07-31T12:06:09.957Z,3.18
2022-07-31T12:08:36.498Z,3.32
2022-07-31T12:11:02.868Z,3.20
2022-07-31T12:13:29.222Z,2.73
2022-07-31T12:15:55.585Z,3.09
2022-07-31T12:18:21.946Z,3.10
2022-07-31T12:20:48.287Z,2.96
2022-07-31T12:23:40.254Z,2.74
2022-07-31T12:26:01.743Z,2.74
2022-07-31T12:28:28.098Z,2.78
2022-07-31T12:30:54.450Z,2.75
2022-07-31T12:33:20.808Z,2.64
2022-07-31T12:35:56.228Z,2.78
2022-07-31T12:38:38.242Z,2.83
2022-07-31T12:41:07.689Z,2.54
2022-07-31T12:43:35.907Z,2.69
2022-07-31T12:46:02.265Z,2.71
2022-07-31T12:48:28.615Z,2.61
2022-07-31T12:50:55.070Z,2.66
2022-07-31T12:53:21.431Z,2.55
2022-07-31T12:55:47.818Z,2.73
2022-07-31T12:58:14.283Z,2.58
2022-07-31T13:00:40.639Z,2.50
2022-07-31T13:03:07.016Z,2.50
2022-07-31T13:05:33.388Z,2.45
2022-07-31T13:07:59.761Z,2.60
2022-07-31T13:10:26.118Z,2.51
2022-07-31T13:12:58.780Z,2.68
2022-07-31T13:15:25.179Z,2.52
2022-07-31T13:17:51.538Z,2.56
2022-07-31T13:20:17.916Z,2.52
2022-07-31T13:22:44.297Z,2.39
2022-07-31T13:25:10.658Z,2.47
2022-07-31T13:27:37.013Z,2.68
2022-07-31T13:30:03.650Z,2.49
2022-07-31T13:32:30.075Z,2.77
2022-07-31T13:35:26.305Z,2.59
2022-07-31T13:37:42.892Z,2.64
2022-07-31T13:40:09.256Z,2.51
2022-07-31T13:42:36.886Z,2.26
2022-07-31T13:45:07.955Z,2.33
2022-07-31T13:47:51.015Z,2.26
2022-07-31T13:50:18.242Z,2.31
2022-07-31T13:52:44.603Z,2.43
2022-07-31T13:55:10.976Z,2.28
2022-07-31T13:57:37.327Z,2.31
2022-07-31T14:00:03.702Z,2.50
2022-07-31T14:02:30.173Z,2.31
2022-07-31T14:04:56.605Z,2.32
2022-07-31T14:07:23.664Z,2.23
2022-07-31T14:10:09.955Z,2.37
2022-07-31T14:12:36.318Z,2.33
2022-07-31T14:15:02.678Z,2.45
2022-07-31T14:17:29.113Z,2.69
2022-07-31T14:19:55.503Z,2.63
2022-07-31T14:22:21.882Z,2.59
2022-07-31T14:24:50.053Z,2.45
2022-07-31T14:27:17.703Z,2.50
2022-07-31T14:29:44.070Z,2.96
2022-07-31T14:32:10.426Z,2.63
2022-07-31T14:34:36.780Z,2.66
2022-07-31T14:37:03.529Z,2.47
2022-07-31T14:39:30.143Z,2.39
2022-07-31T14:41:56.500Z,2.39
2022-07-31T14:44:28.967Z,2.38
2022-07-31T14:46:55.502Z,2.51
2022-07-31T14:49:21.942Z,2.34
2022-07-31T14:51:48.357Z,2.65
2022-07-31T14:54:14.722Z,2.41
2022-07-31T14:57:00.237Z,2.55
2022-07-31T14:59:27.427Z,2.38
2022-07-31T15:01:53.779Z,2.30
2022-07-31T15:04:20.131Z,2.18
2022-07-31T15:06:56.050Z,2.42
2022-07-31T15:09:32.862Z,2.28
2022-07-31T15:12:01.485Z,2.18
2022-07-31T15:14:28.309Z,2.38
2022-07-31T15:16:54.773Z,2.33
2022-07-31T15:19:21.143Z,2.47
2022-07-31T15:22:11.156Z,2.43
2022-07-31T15:24:33.844Z,2.14
2022-07-31T15:27:00.203Z,2.32
2022-07-31T15:30:04.209Z,2.27
2022-07-31T15:32:12.872Z,2.15
2022-07-31T15:34:39.227Z,2.15
2022-07-31T15:37:06.019Z,1.88
2022-07-31T15:39:32.646Z,2.04
2022-07-31T15:41:59.000Z,2.16
2022-07-31T15:44:25.361Z,2.07
2022-07-31T15:46:51.802Z,1.88
2022-07-31T15:49:18.203Z,1.89
2022-07-31T15:51:44.609Z,1.87
2022-07-31T15:54:10.970Z,1.90
2022-07-31T15:56:37.320Z,1.87
2022-07-31T15:59:03.677Z,1.73
2022-07-31T16:01:30.085Z,1.70
2022-07-31T16:03:56.508Z,1.68
2022-07-31T16:06:28.101Z,1.59
2022-07-31T16:08:58.542Z,1.78
2022-07-31T16:11:24.906Z,1.95
2022-07-31T16:14:11.231Z,1.93
2022-07-31T16:16:37.586Z,2.00
2022-07-31T16:19:04.276Z,1.90
2022-07-31T16:21:30.641Z,2.11
2022-07-31T16:23:57.014Z,2.10
2022-07-31T16:26:23.372Z,1.88
2022-07-31T16:28:53.887Z,1.86
2022-07-31T16:31:29.995Z,1.85
2022-07-31T16:33:57.149Z,2.23
2022-07-31T16:36:23.498Z,1.91
2022-07-31T16:39:17.678Z,2.11
2022-07-31T16:41:36.229Z,2.03
2022-07-31T16:44:02.602Z,2.17
2022-07-31T16:46:28.948Z,2.16
2022-07-31T16:48:55.370Z,2.22
2022-07-31T16:51:21.755Z,2.28
2022-07-31T16:54:10.936Z,2.20
2022-07-31T16:56:34.458Z,2.34
2022-07-31T16:59:00.812Z,2.08
2022-07-31T17:01:59.308Z,2.60
2022-07-31T17:04:13.520Z,2.12
2022-07-31T17:06:39.874Z,2.42
2022-07-31T17:09:16.102Z,2.35
2022-07-31T17:11:44.400Z,2.35
2022-07-31T17:14:10.757Z,2.43
2022-07-31T17:16:37.118Z,2.33
2022-07-31T17:19:05.785Z,2.42
2022-07-31T17:21:32.330Z,2.38
2022-07-31T17:23:59.384Z,2.57
2022-07-31T17:26:26.186Z,2.65
2022-07-31T17:28:55.480Z,2.43
2022-07-31T17:31:21.857Z,2.43
2022-07-31T17:33:59.769Z,2.49
2022-07-31T17:36:27.200Z,2.56
2022-07-31T17:38:53.570Z,2.49
2022-07-31T17:41:25.326Z,2.29
2022-07-31T17:43:53.273Z,2.36
2022-07-31T17:46:22.125Z,2.17
2022-07-31T17:49:00.627Z,2.40
2022-07-31T17:51:27.037Z,2.39
2022-07-31T17:53:55.494Z,2.55
2022-07-31T17:56:25.817Z,2.52
2022-07-31T17:58:52.179Z,2.36
2022-07-31T18:01:18.571Z,2.36
2022-07-31T18:03:44.968Z,2.34
2022-07-31T18:06:11.328Z,2.13
2022-07-31T18:08:37.674Z,2.45
2022-07-31T18:11:04.105Z,2.39
2022-07-31T18:13:30.471Z,2.46
2022-07-31T18:16:05.555Z,2.37
2022-07-31T18:18:31.965Z,2.13
2022-07-31T18:20:58.330Z,2.36
2022-07-31T18:23:24.692Z,2.38
2022-07-31T18:25:51.042Z,2.42
2022-07-31T18:28:17.400Z,2.36
2022-07-31T18:30:43.759Z,2.20
2022-07-31T18:33:10.106Z,2.39
2022-07-31T18:35:36.457Z,2.33
2022-07-31T18:38:02.811Z,2.31
2022-07-31T18:40:29.170Z,2.24
2022-07-31T18:42:55.641Z,2.24
2022-07-31T18:45:21.999Z,2.25
2022-07-31T18:47:48.347Z,2.19
2022-07-31T18:51:01.576Z,2.22
2022-07-31T18:53:01.041Z,2.34
2022-07-31T18:55:27.423Z,2.31
2022-07-31T18:57:53.777Z,2.11
2022-07-31T19:00:20.146Z,2.26
2022-07-31T19:02:46.495Z,2.32
2022-07-31T19:05:14.981Z,2.38
2022-07-31T19:07:48.933Z,2.41
2022-07-31T19:10:29.395Z,2.57
2022-07-31T19:12:57.771Z,2.29
2022-07-31T19:15:24.133Z,2.45
2022-07-31T19:17:50.490Z,2.61
2022-07-31T19:20:40.378Z,2.42
2022-07-31T19:23:03.874Z,2.50
2022-07-31T19:25:30.329Z,2.37
2022-07-31T19:28:16.693Z,2.38
2022-07-31T19:30:45.838Z,2.19
2022-07-31T19:33:12.397Z,2.32
2022-07-31T19:35:58.400Z,2.25
2022-07-31T19:38:26.955Z,2.20
2022-07-31T19:40:53.307Z,2.21
2022-07-31T19:43:20.342Z,2.40
2022-07-31T19:46:10.600Z,2.29
2022-07-31T19:48:33.240Z,2.38
2022-07-31T19:50:59.601Z,2.29
2022-07-31T19:53:25.952Z,2.43
2022-07-31T19:55:52.315Z,2.34
2022-07-31T19:58:18.670Z,2.34
2022-07-31T20:00:45.048Z,2.26
2022-07-31T20:03:11.475Z,2.23
2022-07-31T20:05:37.867Z,2.51
2022-07-31T20:08:04.218Z,2.48
2022-07-31T20:10:30.571Z,2.49
2022-07-31T20:12:56.926Z,2.34
2022-07-31T20:15:23.289Z,2.26
2022-07-31T20:17:49.649Z,2.45
2022-07-31T20:20:16.364Z,2.61
2022-07-31T20:22:42.789Z,2.45
2022-07-31T20:25:11.970Z,2.48
2022-07-31T20:27:46.931Z,2.38
2022-07-31T20:30:13.344Z,2.43
2022-07-31T20:32:48.753Z,2.39
2022-07-31T20:35:32.844Z,3.06
2022-07-31T20:38:01.563Z,2.86
2022-07-31T20:40:27.932Z,3.16
2022-07-31T20:42:54.311Z,3.34
2022-07-31T20:45:20.683Z,5.53
2022-07-31T20:47:47.038Z,5.33
2022-07-31T20:50:13.391Z,4.63
2022-07-31T20:52:39.747Z,7.42
2022-07-31T20:55:06.152Z,164.45
2022-07-31T20:57:32.529Z,97.58
2022-07-31T20:59:58.892Z,68.98
2022-07-31T21:02:25.253Z,44.52
2022-07-31T21:04:51.627Z,27.62
2022-07-31T21:07:17.999Z,15.95
2022-07-31T21:09:44.392Z,11.14
2022-07-31T21:12:10.746Z,8.62
2022-07-31T21:14:37.100Z,7.77
2022-07-31T21:17:03.481Z,6.00
2022-07-31T21:19:29.839Z,5.07
2022-07-31T21:21:56.195Z,4.78
2022-07-31T21:24:22.590Z,4.77
2022-07-31T21:26:52.062Z,4.04
2022-07-31T21:29:19.914Z,4.10
2022-07-31T21:31:48.861Z,4.46
2022-07-31T21:34:16.376Z,3.94
2022-07-31T21:36:42.728Z,3.63
2022-07-31T21:39:09.077Z,3.48
2022-07-31T21:41:45.250Z,3.57
2022-07-31T21:44:11.649Z,3.42
2022-07-31T21:46:41.300Z,3.36
2022-07-31T21:49:13.654Z,3.43
2022-07-31T21:51:40.192Z,3.33
2022-07-31T21:54:06.710Z,3.34
2022-07-31T21:56:33.073Z,3.23
2022-07-31T21:58:59.450Z,3.12
2022-07-31T22:01:25.986Z,3.14
2022-07-31T22:03:52.445Z,3.13
2022-07-31T22:06:22.103Z,3.39
2022-07-31T22:08:50.856Z,3.18
2022-07-31T22:11:17.206Z,3.35
2022-07-31T22:13:43.567Z,3.38
2022-07-31T22:16:09.931Z,3.03
2022-07-31T22:18:36.293Z,2.94
2022-07-31T22:21:02.667Z,2.93
2022-07-31T22:23:29.037Z,2.72
2022-07-31T22:25:55.407Z,3.03
2022-07-31T22:28:21.812Z,2.93
2022-07-31T22:30:48.169Z,2.65
2022-07-31T22:33:14.558Z,2.80
2022-07-31T22:35:41.017Z,3.03
2022-07-31T22:38:07.640Z,2.96
2022-07-31T22:40:33.988Z,2.99
2022-07-31T22:43:02.539Z,2.85
2022-07-31T22:45:29.751Z,2.91
2022-07-31T22:47:56.106Z,2.93
2022-07-31T22:50:22.462Z,2.86
2022-07-31T22:52:48.813Z,2.94
2022-07-31T22:55:15.162Z,3.02
2022-07-31T22:57:41.520Z,2.98
2022-07-31T23:00:07.897Z,2.91
2022-07-31T23:02:34.289Z,2.98
2022-07-31T23:05:00.663Z,3.11
2022-07-31T23:07:27.096Z,2.85
2022-07-31T23:09:53.438Z,2.86
2022-07-31T23:12:19.793Z,2.74
2022-07-31T23:14:46.166Z,3.05
2022-07-31T23:17:23.215Z,3.02
2022-07-31T23:19:53.872Z,2.99
2022-07-31T23:22:20.637Z,3.26
2022-07-31T23:24:59.919Z,2.85
2022-07-31T23:27:26.265Z,2.78
2022-07-31T23:29:52.631Z,2.83
2022-07-31T23:32:18.984Z,3.25
2022-07-31T23:34:45.346Z,2.97
2022-07-31T23:37:11.711Z,2.89
2022-07-31T23:39:38.051Z,3.11
2022-07-31T23:42:04.664Z,3.42
2022-07-31T23:44:31.123Z,3.35
2022-07-31T23:46:58.430Z,3.16
2022-07-31T23:49:26.356Z,3.20
2022-07-31T23:51:52.791Z,3.36
2022-07-31T23:54:19.165Z,3.35
2022-07-31T23:56:45.582Z,3.22
2022-07-31T23:59:12.024Z,3.27
